Time;durP1;ratioP1;P1;durP2;ratioP2;P2;SDS_P1;SDS_P2;PMS_P1;PMS_P2;Temp;Humidity;BMP_temperature;BMP_pressure;BME280_temperature;BME280_humidity;BME280_pressure;Samples;Min_cycle;Max_cycle;Signal;HPM_P1;HPM_P2
2022/02/03 00:00:32;;;;;;;0.60;0.30;;;27.60;55.00;;;;;;5025482;28;20770;-41
2022/02/03 00:03:12;;;;;;;0.50;0.35;;;27.60;55.00;;;;;;5025400;28;20222;-42
2022/02/03 00:05:49;;;;;;;0.38;0.30;;;27.70;55.00;;;;;;5023055;28;20188;-45
2022/02/03 00:08:33;;;;;;;0.60;0.30;;;27.70;55.00;;;;;;5023373;28;20215;-45
2022/02/03 00:11:39;;;;;;;0.55;0.25;;;27.70;54.90;;;;;;5022374;28;20216;-42
2022/02/03 00:23:24;;;;;;;1.33;0.60;;;27.80;54.50;;;;;;5102275;28;20556;-50
2022/02/03 00:26:00;;;;;;;0.55;0.30;;;27.90;54.50;;;;;;5100760;28;20645;-50
2022/02/03 00:28:39;;;;;;;0.77;0.40;;;27.90;54.40;;;;;;5101431;28;20960;-54
2022/02/03 00:31:28;;;;;;;0.38;0.38;;;27.90;54.30;;;;;;5102095;28;20275;-51
2022/02/03 00:34:05;;;;;;;1.55;0.35;;;27.90;54.30;;;;;;5099595;28;20201;-45
2022/02/03 00:37:05;;;;;;;0.98;0.32;;;27.90;54.10;;;;;;5101469;28;20227;-47
2022/02/03 00:50:48;;;;;;;0.77;0.50;;;28.00;53.80;;;;;;5103068;28;20251;-45
2022/02/03 00:53:23;;;;;;;0.82;0.30;;;28.10;53.80;;;;;;5102833;28;20220;-47
2022/02/03 00:55:56;;;;;;;0.70;0.30;;;28.10;53.80;;;;;;5099933;28;20193;-54
2022/02/03 00:58:29;;;;;;;2.15;0.50;;;28.10;53.70;;;;;;5100199;28;20213;-48
2022/02/03 01:01:02;;;;;;;0.40;0.17;;;28.10;53.50;;;;;;5099362;28;20197;-51
2022/02/03 01:03:33;;;;;;;0.85;0.20;;;28.10;53.50;;;;;;5100556;28;20251;-43
2022/02/03 01:06:04;;;;;;;1.13;0.40;;;28.20;53.50;;;;;;5101334;28;20295;-56
2022/02/03 01:08:44;;;;;;;0.32;0.30;;;28.20;53.50;;;;;;5102646;28;20217;-51
2022/02/03 01:11:20;;;;;;;0.55;0.30;;;28.20;53.40;;;;;;5100997;28;20262;-50
2022/02/03 01:13:56;;;;;;;1.23;0.20;;;28.20;53.40;;;;;;5101720;28;20200;-44
2022/02/03 01:16:41;;;;;;;0.45;0.30;;;28.20;53.30;;;;;;5099767;28;20200;-50
2022/02/03 01:19:32;;;;;;;1.00;0.47;;;28.30;53.30;;;;;;5099786;28;20221;-50
2022/02/03 01:34:09;;;;;;;0.30;0.30;;;28.30;53.00;;;;;;5084350;28;20205;-54
2022/02/03 01:36:58;;;;;;;0.20;0.20;;;28.30;52.80;;;;;;5085673;28;20197;-54
2022/02/03 01:45:23;;;;;;;0.32;0.30;;;28.40;52.80;;;;;;5083981;28;20343;-50
2022/02/03 01:48:18;;;;;;;2.35;0.95;;;28.40;52.70;;;;;;5086381;28;21537;-58
2022/02/03 01:53:37;;;;;;;1.45;0.40;;;28.50;52.10;;;;;;5087160;28;20246;-57
2022/02/03 01:56:09;;;;;;;2.78;0.50;;;28.50;52.10;;;;;;5086876;28;20194;-52
2022/02/03 01:58:56;;;;;;;2.17;0.70;;;28.50;52.00;;;;;;5087079;28;20252;-58
2022/02/03 02:01:29;;;;;;;1.30;0.50;;;28.50;52.00;;;;;;5085271;28;20626;-58
2022/02/03 02:04:06;;;;;;;0.65;0.38;;;28.50;52.10;;;;;;5083248;28;20703;-56
2022/02/03 02:07:08;;;;;;;1.48;0.50;;;28.50;52.00;;;;;;5086519;28;20206;-53
2022/02/03 02:09:59;;;;;;;1.00;0.55;;;28.60;52.00;;;;;;5082644;28;20194;-45
2022/02/03 02:12:50;;;;;;;1.50;0.45;;;28.60;52.00;;;;;;5085357;28;20194;-59
2022/02/03 02:15:51;;;;;;;1.48;0.50;;;28.60;51.90;;;;;;5082033;28;20645;-44
2022/02/03 02:18:50;;;;;;;0.82;0.60;;;28.60;51.60;;;;;;5081063;28;20921;-41
2022/02/03 02:38:41;;;;;;;1.98;0.40;;;28.70;51.70;;;;;;5081879;28;20783;-50
2022/02/03 02:42:27;;;;;;;1.85;0.50;;;28.70;51.70;;;;;;5080733;28;20229;-40
2022/02/03 02:44:34;;;;;;;1.13;0.43;;;28.70;51.60;;;;;;5080738;28;20206;-43
2022/02/03 02:47:08;;;;;;;1.95;0.55;;;28.80;51.70;;;;;;5080685;28;20202;-42
2022/02/03 02:49:50;;;;;;;0.50;0.50;;;28.80;51.70;;;;;;5084028;28;20748;-48
2022/02/03 02:52:28;;;;;;;0.85;0.38;;;28.80;51.70;;;;;;5084665;28;20208;-44
2022/02/03 02:55:15;;;;;;;1.60;0.40;;;28.80;51.70;;;;;;5082017;28;20440;-43
2022/02/03 03:32:31;;;;;;;1.80;0.60;;;29.20;51.60;;;;;;5085041;28;20199;-55
2022/02/03 03:35:16;;;;;;;0.40;0.40;;;29.20;51.50;;;;;;5082859;28;20787;-53
2022/02/03 03:37:49;;;;;;;0.40;0.40;;;29.20;51.60;;;;;;5082205;28;20217;-54
2022/02/03 03:40:20;;;;;;;0.98;0.50;;;29.20;51.60;;;;;;5084293;28;20257;-56
2022/02/03 03:43:07;;;;;;;1.77;0.52;;;29.20;51.70;;;;;;5084980;28;20194;-50
2022/02/03 03:45:39;;;;;;;1.25;0.60;;;29.20;51.60;;;;;;5083553;28;20711;-42
2022/02/03 03:48:11;;;;;;;0.85;0.50;;;29.30;51.60;;;;;;5083314;28;20245;-48
2022/02/03 03:50:48;;;;;;;1.10;0.60;;;29.30;51.60;;;;;;5081681;28;20209;-51
2022/02/03 03:53:28;;;;;;;0.68;0.57;;;29.30;51.80;;;;;;5083349;28;20202;-49
2022/02/03 03:56:08;;;;;;;2.15;0.60;;;29.30;51.70;;;;;;5083363;28;20201;-52
2022/02/03 03:59:06;;;;;;;1.67;0.70;;;29.40;51.80;;;;;;5081398;28;20221;-54
2022/02/03 04:52:46;;;;;;;3.78;1.15;;;29.70;50.00;;;;;;5084193;28;20614;-55
2022/02/03 05:01:47;;;;;;;3.05;1.20;;;29.70;50.00;;;;;;5081973;28;20250;-48
2022/02/03 05:04:39;;;;;;;2.83;1.23;;;29.70;50.00;;;;;;5081774;28;20475;-49
2022/02/03 05:07:55;;;;;;;2.90;1.30;;;29.70;50.00;;;;;;5086318;28;20209;-45
2022/02/03 05:11:00;;;;;;;2.00;0.85;;;29.70;49.90;;;;;;5085869;28;20658;-40
2022/02/03 05:14:16;;;;;;;3.58;1.48;;;29.70;49.80;;;;;;5083694;28;20198;-58
2022/02/03 05:17:15;;;;;;;3.78;1.48;;;29.70;49.80;;;;;;5084426;28;20198;-49
2022/02/03 05:20:27;;;;;;;2.92;1.40;;;29.70;49.80;;;;;;5086549;28;20724;-55
2022/02/03 05:26:34;;;;;;;3.30;1.60;;;29.70;50.20;;;;;;5084320;28;20230;-41
2022/02/03 05:33:11;;;;;;;3.35;1.60;;;29.70;50.20;;;;;;5084681;28;20270;-38
2022/02/03 05:42:23;;;;;;;5.45;2.25;;;29.70;50.20;;;;;;5086258;28;20208;-45
2022/02/03 05:45:23;;;;;;;6.20;2.33;;;29.70;50.30;;;;;;5085685;28;20194;-53
2022/02/03 06:02:33;;;;;;;6.10;2.97;;;29.70;50.00;;;;;;5087388;28;20668;-48
2022/02/03 06:05:07;;;;;;;5.53;2.75;;;29.70;50.00;;;;;;5085853;28;20196;-43
2022/02/03 06:07:52;;;;;;;4.90;2.40;;;29.70;50.00;;;;;;5084820;28;20263;-42
2022/02/03 06:13:16;;;;;;;5.45;2.88;;;29.70;50.00;;;;;;5085948;28;20664;-39
2022/02/03 06:16:04;;;;;;;5.80;2.95;;;29.60;49.90;;;;;;5085873;28;20212;-45
2022/02/03 06:21:30;;;;;;;5.82;3.03;;;29.60;50.00;;;;;;5073769;28;20280;-40
2022/02/03 06:24:08;;;;;;;5.90;2.80;;;29.60;50.00;;;;;;5068346;28;20199;-41
2022/02/03 06:29:28;;;;;;;3.38;2.65;;;29.60;50.20;;;;;;5053655;28;20209;-39
2022/02/03 06:32:01;;;;;;;5.30;2.80;;;29.60;50.20;;;;;;5068295;28;20252;-52
2022/02/03 06:34:32;;;;;;;5.63;2.88;;;29.50;50.20;;;;;;5053175;28;20195;-45
2022/02/03 06:37:02;;;;;;;4.25;2.83;;;29.50;50.20;;;;;;5066341;28;20198;-44
2022/02/03 06:39:34;;;;;;;5.28;2.90;;;29.50;50.20;;;;;;5068364;28;20694;-51
2022/02/03 06:42:06;;;;;;;5.03;2.88;;;29.50;50.20;;;;;;5067397;28;20256;-44
2022/02/03 06:44:41;;;;;;;5.13;3.30;;;29.50;50.20;;;;;;5068603;28;20203;-39
2022/02/03 06:47:19;;;;;;;5.82;3.28;;;29.50;50.00;;;;;;5068009;28;20240;-42
2022/02/03 06:49:58;;;;;;;5.13;3.28;;;29.50;50.00;;;;;;5069757;28;20293;-41
2022/02/03 06:52:46;;;;;;;3.92;2.95;;;29.50;49.90;;;;;;5068881;28;20190;-45
2022/02/03 06:55:20;;;;;;;4.78;3.30;;;29.50;49.90;;;;;;5068151;28;20295;-39
2022/02/03 06:57:55;;;;;;;5.35;3.15;;;29.40;49.70;;;;;;5068455;28;20275;-40
2022/02/03 07:00:29;;;;;;;3.78;2.67;;;29.40;49.70;;;;;;5067975;28;20305;-44
2022/02/03 07:03:04;;;;;;;4.03;3.08;;;29.40;49.80;;;;;;5062113;28;20929;-40
2022/02/03 07:05:35;;;;;;;6.30;3.53;;;29.30;49.70;;;;;;5057673;28;20198;-47
2022/02/03 07:08:06;;;;;;;4.05;3.30;;;29.30;49.70;;;;;;5069407;28;20214;-42
2022/02/03 07:10:37;;;;;;;4.07;2.75;;;29.30;49.70;;;;;;5050405;28;20199;-42
2022/02/03 07:13:08;;;;;;;4.18;2.90;;;29.20;49.70;;;;;;5064777;28;20256;-45
2022/02/03 07:15:38;;;;;;;4.10;3.05;;;29.20;49.70;;;;;;5066325;28;20202;-48
2022/02/03 07:18:11;;;;;;;4.68;3.13;;;29.20;49.60;;;;;;5066280;28;20751;-44
2022/02/03 07:20:41;;;;;;;4.80;3.17;;;29.10;49.60;;;;;;5068111;28;20238;-41
2022/02/03 07:23:12;;;;;;;3.80;2.95;;;29.10;49.60;;;;;;5066401;28;20191;-42
2022/02/03 07:25:42;;;;;;;4.93;2.67;;;29.10;49.60;;;;;;5067514;28;20240;-39
2022/02/03 07:28:13;;;;;;;3.67;2.80;;;29.00;49.60;;;;;;5051378;28;20249;-40
2022/02/03 07:30:44;;;;;;;3.10;2.78;;;29.00;49.60;;;;;;5067353;28;20191;-51
2022/02/03 07:33:16;;;;;;;3.80;2.65;;;29.00;49.60;;;;;;5056489;28;20199;-43
2022/02/03 07:35:47;;;;;;;4.63;3.10;;;29.00;49.60;;;;;;5060992;28;20195;-41
2022/02/03 07:38:20;;;;;;;5.10;3.35;;;29.00;49.60;;;;;;5065887;28;20298;-46
2022/02/03 07:40:51;;;;;;;4.70;3.13;;;28.90;49.50;;;;;;5068190;28;20766;-41
2022/02/03 07:43:22;;;;;;;3.85;2.72;;;28.90;49.50;;;;;;5061842;28;20196;-42
2022/02/03 07:45:52;;;;;;;3.60;2.60;;;28.90;49.50;;;;;;5067693;28;20281;-42
2022/02/03 07:48:25;;;;;;;3.80;2.65;;;28.90;49.50;;;;;;5054031;28;20737;-46
2022/02/03 07:50:55;;;;;;;2.75;2.22;;;28.80;49.50;;;;;;5056591;28;20199;-44
2022/02/03 07:53:26;;;;;;;3.97;2.75;;;28.80;49.40;;;;;;5067610;28;20191;-42
2022/02/03 07:55:56;;;;;;;3.30;2.53;;;28.70;49.30;;;;;;5066859;28;20253;-49
2022/02/03 07:58:27;;;;;;;3.60;2.78;;;28.70;49.30;;;;;;5066544;28;20771;-43
2022/02/03 08:00:58;;;;;;;3.60;2.47;;;28.70;49.20;;;;;;5066416;28;20226;-39
2022/02/03 08:03:30;;;;;;;3.90;2.97;;;28.60;49.20;;;;;;5068432;28;20194;-41
2022/02/03 08:06:05;;;;;;;3.40;2.40;;;28.60;49.20;;;;;;5067135;28;20210;-41
2022/02/03 08:08:39;;;;;;;4.43;2.47;;;28.60;49.20;;;;;;5067393;28;20216;-43
2022/02/03 08:11:14;;;;;;;4.05;2.90;;;28.60;49.30;;;;;;5067194;28;20198;-51
2022/02/03 08:13:52;;;;;;;3.72;2.65;;;28.50;49.30;;;;;;5064644;28;20542;-52
2022/02/03 08:16:27;;;;;;;3.05;2.58;;;28.50;49.30;;;;;;5053542;28;20198;-47
2022/02/03 08:19:05;;;;;;;4.15;2.80;;;28.50;49.30;;;;;;5050380;28;20229;-43
2022/02/03 08:21:41;;;;;;;2.67;2.20;;;28.50;49.30;;;;;;5055764;28;20229;-47
2022/02/03 08:26:59;;;;;;;4.38;2.47;;;28.40;49.30;;;;;;5064195;28;20212;-55
2022/02/03 08:32:17;;;;;;;6.15;2.80;;;28.30;48.00;;;;;;5059021;28;20202;-55
2022/02/03 08:34:59;;;;;;;5.78;2.63;;;28.30;47.30;;;;;;5058445;28;20213;-57
2022/02/03 08:37:42;;;;;;;5.97;3.17;;;28.20;47.10;;;;;;5065686;28;20211;-45
2022/02/03 08:40:23;;;;;;;6.05;2.78;;;28.20;47.30;;;;;;5054077;28;20234;-59
2022/02/03 08:42:54;;;;;;;6.50;2.70;;;28.10;47.30;;;;;;5066415;28;20286;-58
2022/02/03 08:45:25;;;;;;;10.60;3.05;;;28.10;47.40;;;;;;5072556;28;20194;-60
2022/02/03 08:47:55;;;;;;;7.50;2.70;;;28.00;47.40;;;;;;5071704;28;20240;-57
2022/02/03 08:50:28;;;;;;;8.02;3.15;;;28.00;47.60;;;;;;5070764;28;20614;-60
2022/02/03 08:53:08;;;;;;;6.30;3.33;;;27.90;47.60;;;;;;5070153;28;20811;-50
2022/02/03 08:55:47;;;;;;;5.68;2.70;;;27.90;47.80;;;;;;5071401;28;20201;-52
2022/02/03 09:30:46;;;;;;;3.25;2.10;;;27.50;48.60;;;;;;5079972;28;20283;-52
2022/02/03 09:41:00;;;;;;;3.63;1.98;;;27.40;48.80;;;;;;5081481;28;20221;-51
2022/02/03 09:52:30;;;;;;;2.67;2.10;;;27.20;49.10;;;;;;5081386;28;20681;-58
2022/02/03 09:55:15;;;;;;;4.15;1.95;;;27.20;49.10;;;;;;5078604;28;20201;-50
2022/02/03 09:57:54;;;;;;;2.72;2.20;;;27.20;49.20;;;;;;5078700;28;20223;-56
2022/02/03 10:00:39;;;;;;;3.15;2.00;;;27.10;49.10;;;;;;5078357;28;20225;-57
2022/02/03 10:03:14;;;;;;;3.00;1.90;;;27.10;49.20;;;;;;5080865;28;20209;-57
2022/02/03 10:05:58;;;;;;;3.13;1.98;;;27.10;49.30;;;;;;5081223;28;20191;-55
2022/02/03 10:08:31;;;;;;;4.43;2.33;;;27.10;49.30;;;;;;5081594;28;20206;-58
2022/02/03 10:11:15;;;;;;;3.75;1.95;;;27.00;49.30;;;;;;5075106;28;20194;-52
2022/02/03 10:13:47;;;;;;;2.97;1.90;;;27.00;49.40;;;;;;5066067;28;20248;-51
2022/02/03 10:16:19;;;;;;;3.53;1.80;;;27.00;49.40;;;;;;5065313;28;20537;-55
2022/02/03 10:18:50;;;;;;;5.57;1.98;;;26.90;49.40;;;;;;5064909;28;20218;-57
2022/02/03 10:21:24;;;;;;;2.95;1.88;;;26.90;49.50;;;;;;5065745;28;20227;-51
2022/02/03 10:24:01;;;;;;;3.85;2.05;;;26.90;49.50;;;;;;5067022;28;20203;-55
2022/02/03 10:26:37;;;;;;;3.22;1.98;;;26.90;49.60;;;;;;5067252;28;20195;-51
2022/02/03 10:29:09;;;;;;;2.05;1.70;;;26.90;49.60;;;;;;5068560;28;20233;-59
2022/02/03 10:31:41;;;;;;;3.90;2.08;;;26.90;49.60;;;;;;5065990;28;20202;-56
2022/02/03 10:34:15;;;;;;;2.70;1.88;;;26.80;49.60;;;;;;5065942;28;20195;-59
2022/02/03 10:36:54;;;;;;;3.97;2.00;;;26.80;49.70;;;;;;5066948;28;20195;-59
2022/02/03 10:42:29;;;;;;;3.45;1.85;;;26.70;49.70;;;;;;5031621;28;20689;-59
2022/02/03 10:45:19;;;;;;;2.35;1.58;;;26.70;49.70;;;;;;5066335;28;20742;-50
2022/02/03 10:53:49;;;;;;;1.98;1.50;;;26.60;49.70;;;;;;5007189;28;20195;-53
2022/02/03 11:02:27;;;;;;;3.00;1.58;;;26.60;49.90;;;;;;5067478;28;20325;-58
2022/02/03 11:05:17;;;;;;;2.53;1.55;;;26.50;49.90;;;;;;5068406;28;20194;-59
2022/02/03 11:07:53;;;;;;;3.38;1.75;;;26.50;49.90;;;;;;5066443;28;20215;-58
2022/02/03 11:10:35;;;;;;;3.00;1.80;;;26.50;49.90;;;;;;5065830;28;20202;-54
2022/02/03 11:13:08;;;;;;;3.65;2.00;;;26.40;50.00;;;;;;5064340;28;20207;-58
2022/02/03 11:15:41;;;;;;;2.47;1.60;;;26.40;50.00;;;;;;5065186;28;20257;-48
2022/02/03 11:18:13;;;;;;;3.08;1.60;;;26.40;50.10;;;;;;5063753;28;20215;-58
2022/02/03 11:20:45;;;;;;;2.22;1.45;;;26.40;50.10;;;;;;5058083;28;20714;-54
2022/02/03 11:23:31;;;;;;;1.92;1.45;;;26.40;50.20;;;;;;5050540;28;20203;-55
2022/02/03 11:26:10;;;;;;;2.15;1.83;;;26.30;50.10;;;;;;5035708;28;20612;-52
2022/02/03 11:29:17;;;;;;;2.38;1.65;;;26.30;50.10;;;;;;5033209;28;20224;-47
2022/02/03 11:37:59;;;;;;;2.67;1.30;;;26.20;50.10;;;;;;5027643;28;20223;-54
2022/02/03 11:43:43;;;;;;;2.80;1.73;;;26.20;50.20;;;;;;5041194;28;20571;-57
2022/02/03 11:46:39;;;;;;;1.90;1.73;;;26.20;50.20;;;;;;5048074;28;20200;-58
2022/02/03 11:49:36;;;;;;;2.38;1.70;;;26.10;50.20;;;;;;5046719;28;20227;-52
2022/02/03 11:52:51;;;;;;;3.13;1.38;;;26.10;50.20;;;;;;5045601;28;20214;-55
2022/02/03 12:01:40;;;;;;;2.40;1.33;;;26.10;50.30;;;;;;5009541;28;20215;-49
2022/02/03 12:04:35;;;;;;;3.33;1.48;;;26.00;50.30;;;;;;5047113;28;20203;-53
2022/02/03 12:08:03;;;;;;;2.30;1.52;;;26.00;50.30;;;;;;5047501;28;20272;-56
2022/02/03 12:11:10;;;;;;;2.10;1.45;;;25.90;50.30;;;;;;5048242;28;20212;-49
2022/02/03 12:14:10;;;;;;;1.55;1.20;;;26.00;50.40;;;;;;5047350;28;20199;-58
2022/02/03 12:16:59;;;;;;;2.20;1.38;;;25.90;50.40;;;;;;5047889;28;20290;-60
2022/02/03 12:19:38;;;;;;;3.75;1.30;;;25.80;50.40;;;;;;5047750;28;20219;-54
2022/02/03 12:22:15;;;;;;;2.60;1.48;;;25.90;50.50;;;;;;5047588;28;20226;-59
2022/02/03 12:25:07;;;;;;;2.58;1.33;;;25.80;50.50;;;;;;5042972;28;20204;-59
2022/02/03 12:27:54;;;;;;;2.63;1.60;;;25.80;50.50;;;;;;5034675;28;20196;-59
2022/02/03 12:30:31;;;;;;;1.95;1.42;;;25.80;50.50;;;;;;5038915;28;20235;-59
2022/02/03 12:36:59;;;;;;;1.70;1.23;;;25.80;50.50;;;;;;5045233;28;20274;-55
2022/02/03 12:39:05;;;;;;;2.40;1.48;;;25.70;50.60;;;;;;5047557;28;20364;-46
2022/02/03 12:41:38;;;;;;;1.50;1.10;;;25.70;50.50;;;;;;5047665;28;20265;-58
2022/02/03 12:44:15;;;;;;;2.10;1.30;;;25.70;50.60;;;;;;5047617;28;20203;-55
2022/02/03 12:46:47;;;;;;;1.95;1.40;;;25.70;50.60;;;;;;5038609;28;20291;-56
2022/02/03 12:49:23;;;;;;;2.97;1.60;;;25.70;50.70;;;;;;5033228;28;20796;-60
2022/02/03 12:51:54;;;;;;;2.20;1.30;;;25.60;50.70;;;;;;5041305;28;20199;-60
2022/02/03 12:54:24;;;;;;;2.90;1.60;;;25.60;50.70;;;;;;5047729;28;20191;-58
2022/02/03 12:57:03;;;;;;;2.00;1.15;;;25.60;50.70;;;;;;5047468;28;20282;-54
2022/02/03 12:59:34;;;;;;;1.58;1.33;;;25.60;51.30;;;;;;5047070;28;20223;-55
2022/02/03 13:02:12;;;;;;;1.77;1.10;;;25.60;50.70;;;;;;5035625;28;20506;-56
2022/02/03 13:04:45;;;;;;;2.05;1.20;;;25.50;50.80;;;;;;5036805;28;20241;-56
2022/02/03 13:07:19;;;;;;;2.05;1.38;;;25.50;50.80;;;;;;5039021;28;20199;-55
2022/02/03 13:09:53;;;;;;;2.15;1.15;;;25.50;50.80;;;;;;5047651;28;20279;-55
2022/02/03 13:12:35;;;;;;;3.65;1.50;;;25.50;50.80;;;;;;5032230;28;20190;-56
2022/02/03 13:15:07;;;;;;;1.50;1.25;;;25.50;50.80;;;;;;5035203;28;20199;-53
2022/02/03 13:17:41;;;;;;;1.40;1.20;;;25.50;50.80;;;;;;5030103;28;20200;-59
2022/02/03 13:20:19;;;;;;;1.40;1.17;;;25.40;50.80;;;;;;5033484;28;20278;-53
2022/02/03 13:22:54;;;;;;;1.65;1.23;;;25.40;50.80;;;;;;5047384;28;20286;-54
2022/02/03 13:25:31;;;;;;;1.90;1.30;;;25.40;50.90;;;;;;5047664;28;20195;-51
2022/02/03 13:28:07;;;;;;;1.50;1.08;;;25.40;50.90;;;;;;5048323;28;20215;-57
2022/02/03 13:30:45;;;;;;;1.60;1.38;;;25.40;50.90;;;;;;5047273;28;20209;-50
2022/02/03 13:33:19;;;;;;;1.85;1.13;;;25.40;50.90;;;;;;5045052;28;20249;-56
2022/02/03 13:35:56;;;;;;;1.95;1.23;;;25.30;51.50;;;;;;5036508;28;20307;-56
2022/02/03 13:38:39;;;;;;;1.92;1.20;;;25.30;50.90;;;;;;5034928;28;20228;-55
2022/02/03 13:41:16;;;;;;;2.13;1.10;;;25.30;50.90;;;;;;5044703;28;20222;-52
2022/02/03 13:43:47;;;;;;;2.42;1.30;;;25.30;50.90;;;;;;5047292;28;20239;-54
2022/02/03 13:46:28;;;;;;;1.88;1.20;;;25.30;50.90;;;;;;5047763;28;20617;-53
2022/02/03 13:48:59;;;;;;;1.42;1.20;;;25.30;50.90;;;;;;5050142;28;20211;-49
2022/02/03 13:51:37;;;;;;;1.60;1.00;;;25.30;51.00;;;;;;5049932;28;20203;-56
2022/02/03 13:54:20;;;;;;;1.02;0.93;;;25.20;51.00;;;;;;5051046;28;20241;-55
2022/02/03 14:22:41;;;;;;;1.15;0.95;;;25.00;51.10;;;;;;5050477;28;20300;-53
2022/02/03 14:28:01;;;;;;;1.15;0.95;;;25.00;51.10;;;;;;5034919;28;20287;-57
2022/02/03 14:30:31;;;;;;;1.10;1.00;;;25.00;51.10;;;;;;5051128;28;20203;-57
2022/02/03 14:33:02;;;;;;;2.63;1.25;;;25.00;51.10;;;;;;5051273;28;20204;-56
2022/02/03 14:35:32;;;;;;;1.80;1.08;;;25.00;51.20;;;;;;5050143;28;20214;-59
2022/02/03 14:38:14;;;;;;;1.85;1.02;;;24.90;51.20;;;;;;5049184;28;20223;-59
2022/02/03 14:40:57;;;;;;;1.48;1.05;;;24.90;51.20;;;;;;5049637;28;20223;-57
2022/02/03 14:43:29;;;;;;;1.65;1.10;;;24.90;51.20;;;;;;5049683;28;20629;-51
2022/02/03 14:46:01;;;;;;;1.00;0.90;;;24.90;51.20;;;;;;5045131;28;20210;-51
2022/02/03 14:48:32;;;;;;;1.50;1.30;;;24.90;51.20;;;;;;5050815;28;20585;-54
2022/02/03 14:51:05;;;;;;;1.48;0.98;;;24.90;51.20;;;;;;5049582;28;20241;-57
2022/02/03 14:53:49;;;;;;;1.55;1.20;;;24.90;51.30;;;;;;5042090;28;20200;-58
2022/02/03 14:59:09;;;;;;;1.48;1.02;;;24.80;51.20;;;;;;5049766;28;20230;-46
2022/02/03 15:01:39;;;;;;;0.80;0.80;;;24.80;51.30;;;;;;5049509;28;20281;-54
2022/02/03 15:04:14;;;;;;;1.05;0.93;;;24.80;51.30;;;;;;5049336;28;20719;-54
2022/02/03 15:06:55;;;;;;;1.33;0.93;;;24.80;51.30;;;;;;5049062;28;20207;-58
2022/02/03 15:09:49;;;;;;;1.05;0.80;;;24.80;51.30;;;;;;5044103;28;20254;-56
2022/02/03 15:12:38;;;;;;;1.33;0.80;;;24.70;51.30;;;;;;5041427;28;20229;-58
2022/02/03 15:15:09;;;;;;;1.75;0.93;;;24.70;51.30;;;;;;5049349;28;20203;-56
2022/02/03 15:17:40;;;;;;;1.73;1.17;;;24.70;51.30;;;;;;5043201;28;20196;-56
2022/02/03 15:20:11;;;;;;;0.98;0.80;;;24.70;51.30;;;;;;5039963;28;20616;-58
2022/02/03 15:22:42;;;;;;;1.23;0.95;;;24.70;51.30;;;;;;5045454;28;20250;-56
2022/02/03 15:25:12;;;;;;;1.05;0.90;;;24.70;51.40;;;;;;5036757;28;20200;-57
2022/02/03 15:27:45;;;;;;;1.02;0.90;;;24.70;51.40;;;;;;5049681;28;20198;-54
2022/02/03 15:30:17;;;;;;;1.00;0.90;;;24.70;51.50;;;;;;5034211;28;20192;-58
2022/02/03 15:32:47;;;;;;;1.45;1.10;;;24.60;51.40;;;;;;5033631;28;20195;-58
2022/02/03 15:35:24;;;;;;;1.17;0.90;;;24.60;51.40;;;;;;5040382;28;20203;-53
2022/02/03 15:37:55;;;;;;;1.30;0.90;;;24.60;51.50;;;;;;5047866;28;20306;-54
2022/02/03 15:40:28;;;;;;;0.60;0.60;;;24.60;51.50;;;;;;5049527;28;20666;-54
2022/02/03 15:43:04;;;;;;;1.25;0.70;;;24.60;51.50;;;;;;5034760;28;20286;-59
2022/02/03 15:45:39;;;;;;;1.20;0.90;;;24.60;51.50;;;;;;5048530;28;20207;-59
2022/02/03 15:48:26;;;;;;;0.95;0.80;;;24.50;51.40;;;;;;5048464;28;20219;-58
2022/02/03 15:51:14;;;;;;;1.02;0.73;;;24.50;51.50;;;;;;5034908;28;20719;-59
2022/02/03 16:18:59;;;;;;;1.10;0.90;;;24.40;51.60;;;;;;5027246;28;20226;-52
2022/02/03 16:21:35;;;;;;;1.42;0.90;;;24.40;51.60;;;;;;5048816;28;20269;-46
2022/02/03 16:24:30;;;;;;;1.40;0.98;;;24.40;51.70;;;;;;5032833;28;20280;-54
2022/02/03 16:54:46;;;;;;;0.90;0.82;;;24.20;51.70;;;;;;5027167;28;20207;-55
2022/02/03 16:57:22;;;;;;;0.80;0.70;;;24.20;51.70;;;;;;5044111;28;20594;-59
2022/02/03 16:59:57;;;;;;;0.85;0.73;;;24.20;51.80;;;;;;5036545;28;20625;-57
2022/02/03 17:02:27;;;;;;;0.70;0.60;;;24.20;51.80;;;;;;5047684;28;20222;-51
2022/02/03 17:05:00;;;;;;;0.52;0.52;;;24.20;51.80;;;;;;5047621;28;20196;-49
2022/02/03 17:07:31;;;;;;;0.70;0.70;;;24.20;51.90;;;;;;5047126;28;20191;-59
2022/02/03 17:10:01;;;;;;;0.65;0.65;;;24.20;51.90;;;;;;5047831;28;20261;-50
2022/02/03 17:12:32;;;;;;;0.57;0.57;;;24.10;51.90;;;;;;5048215;28;20257;-52
2022/02/03 17:15:03;;;;;;;0.88;0.60;;;24.10;51.90;;;;;;5046386;28;20199;-52
2022/02/03 17:17:34;;;;;;;0.57;0.52;;;24.10;51.90;;;;;;5047094;28;20232;-56
2022/02/03 17:20:07;;;;;;;0.50;0.50;;;24.10;51.90;;;;;;5047212;28;20199;-61
2022/02/03 17:22:42;;;;;;;0.60;0.60;;;24.10;52.00;;;;;;5050462;28;20215;-57
2022/02/03 17:25:18;;;;;;;0.80;0.60;;;24.10;52.50;;;;;;5051333;28;20222;-55
2022/02/03 17:27:55;;;;;;;0.52;0.50;;;24.10;51.90;;;;;;5040835;28;20204;-52
2022/02/03 17:30:31;;;;;;;0.95;0.70;;;24.00;51.90;;;;;;5046217;28;20290;-57
2022/02/03 18:07:01;;;;;;;0.50;0.50;;;23.90;52.10;;;;;;5051652;28;20204;-53
2022/02/03 18:09:40;;;;;;;0.73;0.60;;;23.90;52.10;;;;;;5050336;28;20219;-58
2022/02/03 18:26:54;;;;;;;0.50;0.40;;;23.80;52.10;;;;;;5050362;28;20245;-55
2022/02/03 18:45:45;;;;;;;0.65;0.50;;;23.80;52.10;;;;;;5049604;28;20288;-56
2022/02/03 18:51:49;;;;;;;0.55;0.50;;;23.70;52.20;;;;;;5040945;28;20203;-59
2022/02/03 18:54:26;;;;;;;0.50;0.40;;;23.70;52.20;;;;;;5050258;28;20234;-60
2022/02/03 18:57:04;;;;;;;0.30;0.30;;;23.70;52.20;;;;;;5036747;28;20283;-62
2022/02/03 19:00:05;;;;;;;0.43;0.40;;;23.70;52.30;;;;;;5047058;28;20597;-56
2022/02/03 19:03:02;;;;;;;0.38;0.35;;;23.70;52.30;;;;;;5049706;28;20219;-59
2022/02/03 20:04:31;;;;;;;0.88;0.52;;;23.50;53.10;;;;;;5043739;28;20265;-60
2022/02/03 20:07:13;;;;;;;0.88;0.50;;;23.50;52.50;;;;;;5037554;28;20207;-55
2022/02/03 20:10:00;;;;;;;0.77;0.40;;;23.50;52.50;;;;;;5033829;28;20223;-54
2022/02/03 20:12:30;;;;;;;0.70;0.50;;;23.50;52.50;;;;;;5045995;28;20199;-57
2022/02/03 20:15:01;;;;;;;0.50;0.50;;;23.40;52.50;;;;;;5048130;28;20191;-55
2022/02/03 20:17:32;;;;;;;0.90;0.55;;;23.40;52.50;;;;;;5047825;28;20211;-49
2022/02/03 20:20:02;;;;;;;0.40;0.40;;;23.40;52.50;;;;;;5041135;28;20219;-54
2022/02/03 20:22:38;;;;;;;0.70;0.57;;;23.40;52.60;;;;;;5047528;28;20222;-54
2022/02/03 20:25:10;;;;;;;0.30;0.30;;;23.40;52.60;;;;;;5047792;28;20211;-57
2022/02/03 20:27:48;;;;;;;0.60;0.32;;;23.40;52.60;;;;;;5045256;28;20224;-60
2022/02/03 20:30:18;;;;;;;0.70;0.50;;;23.40;52.70;;;;;;5036875;28;20203;-57
2022/02/03 20:32:49;;;;;;;0.68;0.38;;;23.40;52.70;;;;;;5048027;28;20204;-58
2022/02/03 20:35:19;;;;;;;0.70;0.50;;;23.40;52.70;;;;;;5047852;28;20196;-44
2022/02/03 20:37:52;;;;;;;0.60;0.50;;;23.40;52.80;;;;;;5048040;28;20199;-54
2022/02/03 20:40:23;;;;;;;1.25;0.52;;;23.40;52.80;;;;;;5048532;28;20195;-53
2022/02/03 20:42:53;;;;;;;1.13;0.57;;;23.40;52.80;;;;;;5057695;28;20272;-54
2022/02/03 20:45:24;;;;;;;0.88;0.50;;;23.40;52.80;;;;;;5062956;28;20195;-56
2022/02/03 20:47:55;;;;;;;1.67;0.80;;;23.40;52.90;;;;;;5062278;28;20254;-43
2022/02/03 20:50:26;;;;;;;0.63;0.60;;;23.40;52.80;;;;;;5062276;28;20655;-47
2022/02/03 20:52:58;;;;;;;1.77;0.80;;;23.40;52.90;;;;;;5057261;28;20191;-52
2022/02/03 20:55:29;;;;;;;1.45;0.73;;;23.40;52.90;;;;;;5060568;28;20296;-56
2022/02/03 20:58:00;;;;;;;1.27;0.70;;;23.40;52.90;;;;;;5062612;28;20260;-46
2022/02/03 21:00:39;;;;;;;1.35;0.47;;;23.40;53.00;;;;;;5095689;28;20199;-53
2022/02/03 21:03:16;;;;;;;1.40;0.65;;;23.40;53.00;;;;;;5063471;28;20226;-49
2022/02/03 21:05:47;;;;;;;1.15;0.63;;;23.40;52.90;;;;;;5064848;28;20570;-51
2022/02/03 21:08:26;;;;;;;1.25;0.70;;;23.40;53.00;;;;;;5064485;28;20210;-46
2022/02/03 21:10:57;;;;;;;0.82;0.60;;;23.40;53.00;;;;;;5063086;28;20226;-46
2022/02/03 21:13:28;;;;;;;0.82;0.50;;;23.40;53.00;;;;;;5064732;28;20630;-45
2022/02/03 21:15:59;;;;;;;1.48;0.60;;;23.40;53.10;;;;;;5063211;28;20241;-52
2022/02/03 21:18:34;;;;;;;1.33;0.80;;;23.40;53.10;;;;;;5063783;28;20587;-47
2022/02/03 21:21:05;;;;;;;1.35;0.60;;;23.40;53.10;;;;;;5063089;28;20259;-48
2022/02/03 21:23:38;;;;;;;1.10;0.60;;;23.40;53.10;;;;;;5062411;28;20410;-47
2022/02/03 21:26:16;;;;;;;1.10;0.50;;;23.40;53.20;;;;;;5062616;28;20233;-50
2022/02/03 21:28:49;;;;;;;1.25;0.73;;;23.40;53.20;;;;;;5057666;22;20233;-44
2022/02/03 21:31:20;;;;;;;0.50;0.50;;;23.40;53.20;;;;;;5023826;28;20188;-54
2022/02/03 21:33:54;;;;;;;0.63;0.50;;;23.30;53.20;;;;;;5024486;28;20231;-50
2022/02/03 21:36:26;;;;;;;1.13;0.70;;;23.30;53.20;;;;;;5021321;28;20210;-40
2022/02/03 21:38:59;;;;;;;0.75;0.52;;;23.30;53.20;;;;;;5021010;28;20323;-45
2022/02/03 21:41:29;;;;;;;0.90;0.52;;;23.40;53.30;;;;;;5023071;28;20652;-44
2022/02/03 21:44:00;;;;;;;0.90;0.50;;;23.30;53.20;;;;;;5022229;28;20215;-48
2022/02/03 21:46:30;;;;;;;1.40;0.50;;;23.40;53.20;;;;;;5023662;28;20266;-44
2022/02/03 21:49:01;;;;;;;1.13;0.52;;;23.40;53.50;;;;;;5024461;28;20220;-42